createdAt,value
2019-06-20T04:03:48.931Z,100646.76
2019-06-20T04:07:16.928Z,100647.27
2019-06-20T04:10:52.374Z,100671.6
2019-06-20T04:14:20.345Z,100664.28
2019-06-20T04:17:50.356Z,100669.1
2019-06-20T04:21:18.329Z,100657.65
2019-06-20T04:24:46.266Z,100654.79
2019-06-20T04:28:14.235Z,100670.26
2019-06-20T04:31:42.197Z,100661.31
2019-06-20T04:35:10.176Z,100681.42
2019-06-20T04:38:38.178Z,100671.03
2019-06-20T04:42:06.131Z,100688.64
2019-06-20T04:45:36.076Z,100686.7
2019-06-20T04:49:04.058Z,100676.68
2019-06-20T04:52:32.037Z,100676.55
2019-06-20T04:55:59.994Z,100694.35
2019-06-20T04:59:30.003Z,100698.83
2019-06-20T05:02:57.966Z,100703.03
2019-06-20T05:06:25.953Z,100693.1
2019-06-20T05:09:53.910Z,100696.75
2019-06-20T05:13:21.898Z,100687.83
2019-06-20T05:16:49.859Z,100671.67
2019-06-20T05:20:17.871Z,100669.28
2019-06-20T05:23:45.848Z,100678.06
2019-06-20T05:27:13.958Z,100681.45
2019-06-20T05:30:42.001Z,100681.42
2019-06-20T05:34:09.984Z,100684.05
2019-06-20T05:37:38.012Z,100691.81
2019-06-20T05:41:06.061Z,100701.34
2019-06-20T05:44:34.036Z,100710
2019-06-20T05:48:03.001Z,100718.34
2019-06-20T05:51:30.989Z,100710.9
2019-06-20T05:54:58.999Z,100720.45
2019-06-20T05:58:27.013Z,100721.23
2019-06-20T06:01:57.059Z,100736.65
2019-06-20T06:05:24.998Z,100734.96
2019-06-20T06:08:53.968Z,100745.48
2019-06-20T06:12:21.937Z,100755
2019-06-20T06:15:49.897Z,100753.23
2019-06-20T06:19:17.868Z,100749.21
2019-06-20T06:22:46.967Z,100755.92
2019-06-20T06:26:14.928Z,100752.24
2019-06-20T06:29:42.896Z,100755.89
2019-06-20T06:33:10.859Z,100747.21
2019-06-20T06:36:38.833Z,100751.36
2019-06-20T06:40:06.791Z,100744.46
2019-06-20T06:43:40.789Z,100737.53
2019-06-20T06:47:06.747Z,100737.28
2019-06-20T06:50:34.695Z,100741.7
2019-06-20T06:54:02.664Z,100734.21
2019-06-20T06:57:30.654Z,100732.26
2019-06-20T07:00:58.613Z,100746.81
2019-06-20T07:04:27.432Z,100745.98
2019-06-20T07:07:55.407Z,100747
2019-06-20T07:11:23.385Z,100751.53
2019-06-20T07:14:51.327Z,100765.54
2019-06-20T07:18:19.305Z,100771.48
2019-06-20T07:21:47.291Z,100775.34
2019-06-20T07:25:15.347Z,100782.06
2019-06-20T07:28:43.308Z,100786.32
2019-06-20T07:32:11.275Z,100789.29
2019-06-20T07:35:41.827Z,100791.12
2019-06-20T07:39:09.173Z,100780.17
2019-06-20T07:42:37.153Z,100779.32
2019-06-20T07:46:05.247Z,100775.79
2019-06-20T07:49:33.193Z,100775.51
2019-06-20T07:53:03.197Z,100798.12
2019-06-20T07:56:31.115Z,100793.18
2019-06-20T07:59:59.069Z,100794.5
2019-06-20T08:03:27.057Z,100790.48
2019-06-20T08:06:55.220Z,100801.49
2019-06-20T08:10:23.082Z,100799.78
2019-06-20T08:13:51.074Z,100807.64
2019-06-20T08:17:34.675Z,100817.04
2019-06-20T08:20:53.928Z,100817.76
2019-06-20T08:24:21.892Z,100814.47
2019-06-20T08:27:49.925Z,100821.6
2019-06-20T08:31:17.859Z,100827.4
2019-06-20T08:34:45.821Z,100828.31
2019-06-20T08:38:13.803Z,100831.07
2019-06-20T08:41:41.745Z,100838.26
2019-06-20T08:45:09.725Z,100842.07
2019-06-20T08:48:37.802Z,100842.31
2019-06-20T08:52:06.755Z,100849.29
2019-06-20T08:55:36.818Z,100854.71
2019-06-20T08:59:05.694Z,100853.89
2019-06-20T09:02:35.637Z,100851.55
2019-06-20T09:06:04.752Z,100855.59
2019-06-20T09:09:32.679Z,100857.72
2019-06-20T09:13:01.377Z,100858.76
2019-06-20T09:16:29.592Z,100854.54
2019-06-20T09:19:58.027Z,100871.2
2019-06-20T09:23:26.542Z,100863.49
2019-06-20T09:26:57.206Z,100859.71
2019-06-20T09:30:24.496Z,100872.57
2019-06-20T09:33:55.686Z,100874.04
2019-06-20T09:37:26.362Z,100882.03
2019-06-20T09:40:55.315Z,100880.53
2019-06-20T09:44:23.291Z,100888.39
2019-06-20T09:47:53.526Z,100887.9
2019-06-20T09:51:23.475Z,100885.75
2019-06-20T09:54:53.859Z,100886.54
2019-06-20T09:58:22.386Z,100887.46
2019-06-20T10:01:53.443Z,100893.06
2019-06-20T10:05:23.246Z,100889.15
2019-06-20T10:08:54.336Z,100890.39
2019-06-20T10:12:30.699Z,100899.62
2019-06-20T10:15:58.645Z,100901.78
2019-06-20T10:19:26.824Z,100894.44
2019-06-20T10:22:54.774Z,100901.86
2019-06-20T10:26:23.724Z,100900.24
2019-06-20T10:29:53.428Z,100917.26
2019-06-20T10:33:21.627Z,100911.76
2019-06-20T10:36:50.086Z,100910.81
2019-06-20T10:40:18.564Z,100913.2
2019-06-20T10:43:49.489Z,100923.43
2019-06-20T10:47:31.848Z,100923.61
2019-06-20T10:50:54.333Z,100922.31
2019-06-20T10:54:22.326Z,100923.58
2019-06-20T10:57:52.295Z,100915.48
2019-06-20T11:01:20.224Z,100919.46
2019-06-20T11:04:48.172Z,100930.96
2019-06-20T11:08:18.123Z,100929.6
2019-06-20T11:11:49.050Z,100927.16
2019-06-20T11:15:17.014Z,100929.21
2019-06-20T11:18:46.962Z,100921.45
2019-06-20T11:22:14.926Z,100925.34
2019-06-20T11:25:43.978Z,100922.62
2019-06-20T11:29:13.922Z,100922.17
2019-06-20T11:32:43.495Z,100930.63
2019-06-20T11:36:10.863Z,100937.76
2019-06-20T11:39:41.019Z,100944.52
2019-06-20T11:43:09.736Z,100947.39
2019-06-20T11:46:40.641Z,100954.1
2019-06-20T11:50:08.617Z,100958.79
2019-06-20T11:53:38.544Z,100958.96
2019-06-20T11:57:08.514Z,100965.05
2019-06-20T12:00:36.488Z,100961.95
2019-06-20T12:04:04.437Z,100962.14
2019-06-20T12:07:33.420Z,100961.75
2019-06-20T12:11:01.382Z,100965.76
2019-06-20T12:14:29.341Z,100967.6
2019-06-20T12:17:57.310Z,100969
2019-06-20T12:21:25.272Z,100966.43
2019-06-20T12:24:53.231Z,100969.5
2019-06-20T12:28:21.207Z,100967.5
2019-06-20T12:31:50.165Z,100973.37
2019-06-20T12:35:20.132Z,100973.35
2019-06-20T12:38:50.767Z,100964.06
2019-06-20T12:42:18.042Z,100962.42
2019-06-20T12:45:47.305Z,100971.17
2019-06-20T12:49:16.968Z,100957.4
2019-06-20T12:52:49.537Z,100965.03
2019-06-20T12:56:16.875Z,100964.15
2019-06-20T12:59:48.184Z,100967.04
2019-06-20T13:03:16.767Z,100971.1
2019-06-20T13:06:46.866Z,100979.54
2019-06-20T13:10:15.719Z,100982.43
2019-06-20T13:13:44.379Z,100975.14
2019-06-20T13:17:12.429Z,100966.6
2019-06-20T13:20:46.182Z,100963.64
2019-06-20T13:24:22.701Z,100973.93
2019-06-20T13:27:51.652Z,100966.28
2019-06-20T13:31:19.607Z,100972.62
2019-06-20T13:34:49.170Z,100992.85
2019-06-20T13:38:17.126Z,101006.12
2019-06-20T13:41:45.715Z,101002.85
2019-06-20T13:45:15.104Z,101022.1
2019-06-20T13:48:45.761Z,101026.25
2019-06-20T13:52:15.947Z,101031.5
2019-06-20T13:55:45.801Z,101026.53
2019-06-20T13:59:12.854Z,100996.98
2019-06-20T14:02:44.532Z,101010.46
2019-06-20T14:06:14.764Z,101022.73
2019-06-20T14:09:44.823Z,101020.06
2019-06-20T14:13:18.908Z,101020.57
2019-06-20T14:16:45.681Z,101011.69
2019-06-20T14:20:14.632Z,101003.2
2019-06-20T14:23:46.056Z,101007.71
2019-06-20T14:27:16.579Z,101013.07
2019-06-20T14:30:46.898Z,101011.68
2019-06-20T14:34:15.489Z,101010.84
2019-06-20T14:37:47.730Z,101002.03
2019-06-20T14:41:26.566Z,101003.56
2019-06-20T14:44:55.923Z,100996.39
2019-06-20T14:48:25.958Z,100992.82
2019-06-20T14:51:55.977Z,101000.26
2019-06-20T14:55:24.042Z,101005.16
2019-06-20T14:58:53.809Z,101012.24
2019-06-20T15:02:34.528Z,101014.62
2019-06-20T15:05:54.931Z,101014.45
2019-06-20T15:09:23.888Z,101016.98
2019-06-20T15:12:55.636Z,101016.6
2019-06-20T15:16:25.474Z,101014.57
2019-06-20T15:19:57.538Z,101013.47
2019-06-20T15:23:26.397Z,101018.57
2019-06-20T15:26:57.724Z,101010.48
2019-06-20T15:30:26.738Z,101014.87
2019-06-20T15:33:57.291Z,101007.34
2019-06-20T15:37:25.043Z,101007.98
2019-06-20T15:40:57.619Z,101010.57
2019-06-20T15:44:25.265Z,101019.4
2019-06-20T15:47:54.383Z,101019.51
2019-06-20T15:51:24.088Z,101025.73
2019-06-20T15:54:54.315Z,101028.23
2019-06-20T15:58:22.326Z,101024.03
2019-06-20T16:01:57.967Z,101034.25
2019-06-20T16:05:27.181Z,101038.63
2019-06-20T16:08:56.270Z,101045.04
2019-06-20T16:12:31.321Z,101043.87
2019-06-20T16:15:59.828Z,101041.44
2019-06-20T16:19:27.808Z,101042.4
2019-06-20T16:22:56.758Z,101047.7
2019-06-20T16:26:24.736Z,101055.01
2019-06-20T16:29:52.665Z,101061.78
2019-06-20T16:33:25.354Z,101063.33
2019-06-20T16:36:52.560Z,101062.92
2019-06-20T16:40:23.476Z,101072.78
2019-06-20T16:43:51.481Z,101073.25
2019-06-20T16:47:19.492Z,101072.01
2019-06-20T16:50:48.413Z,101075.95
2019-06-20T16:54:16.414Z,101069.82
2019-06-20T16:57:44.614Z,101076.53
2019-06-20T17:01:12.401Z,101080.88
2019-06-20T17:04:40.387Z,101081.71
2019-06-20T17:08:09.450Z,101081.1
2019-06-20T17:11:37.416Z,101084.57
2019-06-20T17:15:05.600Z,101088.34
2019-06-20T17:18:34.826Z,101091.03
2019-06-20T17:22:03.063Z,101091.03
2019-06-20T17:25:39.810Z,101095.81
2019-06-20T17:29:09.800Z,101093.37
2019-06-20T17:32:40.224Z,101093.85
2019-06-20T17:36:18.108Z,101097.39
2019-06-20T17:39:44.378Z,101104.1
2019-06-20T17:43:13.076Z,101101.45
2019-06-20T17:46:41.580Z,101098.69
2019-06-20T17:50:11.129Z,101098.3
2019-06-20T17:53:40.766Z,101090.15
2019-06-20T17:57:10.530Z,101081.67
2019-06-20T18:00:39.431Z,101097.03
2019-06-20T18:04:17.587Z,101103.13
2019-06-20T18:08:29.756Z,101100.67
2019-06-20T18:11:58.455Z,101096.49
2019-06-20T18:15:27.164Z,101094.92
2019-06-20T18:18:58.640Z,101098.64
2019-06-20T18:22:27.318Z,101112.73
2019-06-20T18:25:55.855Z,101117.86
2019-06-20T18:29:24.530Z,101116.66
2019-06-20T18:32:53.685Z,101117.53
2019-06-20T18:36:22.284Z,101120.21
2019-06-20T18:39:50.916Z,101124.91
2019-06-20T18:43:19.645Z,101134.12
2019-06-20T18:46:49.851Z,101135.3
2019-06-20T18:50:20.118Z,101140.32
2019-06-20T18:53:51.513Z,101146.01
2019-06-20T18:57:19.489Z,101139.31
2019-06-20T19:00:47.883Z,101146.42
2019-06-20T19:04:16.260Z,101144.42
2019-06-20T19:07:45.400Z,101141.64
2019-06-20T19:11:13.532Z,101151.21
2019-06-20T19:14:41.629Z,101157.17
2019-06-20T19:18:10.333Z,101161.07
2019-06-20T19:21:38.753Z,101165.53
2019-06-20T19:25:07.375Z,101172.75
2019-06-20T19:28:36.708Z,101175.48
2019-06-20T19:32:08.423Z,101179.82
2019-06-20T19:35:45.496Z,101177.73
2019-06-20T19:39:13.618Z,101187.49
2019-06-20T19:42:44.821Z,101201.04
2019-06-20T19:46:12.858Z,101207.67
2019-06-20T19:49:45.711Z,101216.68
2019-06-20T19:53:16.801Z,101219.1
2019-06-20T19:56:46.216Z,101221.17
2019-06-20T20:00:14.288Z,101223.04
2019-06-20T20:03:42.422Z,101234.25
2019-06-20T20:10:41.646Z,101231.17
2019-06-20T20:14:12.585Z,101233.17
2019-06-20T20:17:40.654Z,101227.1
2019-06-20T20:21:08.755Z,101229.73
2019-06-20T20:24:37.658Z,101237.02
2019-06-20T20:28:06.776Z,101239.07
2019-06-20T20:31:34.988Z,101234.83
2019-06-20T20:35:03.170Z,101238.23
2019-06-20T20:38:31.284Z,101241.4
2019-06-20T20:41:59.475Z,101239.31
2019-06-20T20:45:29.080Z,101238.65
2019-06-20T20:48:59.132Z,101240.12
2019-06-20T20:52:27.283Z,101237.25
2019-06-20T20:55:55.391Z,101249.89
2019-06-20T20:59:24.384Z,101249.36
2019-06-20T21:02:52.481Z,101247.25
2019-06-20T21:06:20.557Z,101249.57
2019-06-20T21:09:48.665Z,101247.75
2019-06-20T21:13:16.807Z,101253.39
2019-06-20T21:16:44.970Z,101251.06
2019-06-20T21:20:13.073Z,101255.59
2019-06-20T21:23:41.240Z,101255.39
2019-06-20T21:27:09.477Z,101262.71
2019-06-20T21:30:38.521Z,101276.75
2019-06-20T21:34:06.745Z,101278.59
2019-06-20T21:37:35.036Z,101281.28
2019-06-20T21:41:04.714Z,101272.67
2019-06-20T21:44:32.888Z,101268.57
2019-06-20T21:48:01.012Z,101262.81
2019-06-20T21:51:29.123Z,101255.85
2019-06-20T21:54:57.230Z,101254.85
2019-06-20T21:58:25.484Z,101247.76
